Labs

Pokémon
United States
Tournaments

1184 tournaments, 1174 completed

Alabama
1/25 Saturday
10:00 McPherson (67460) 7 + 4 + 6 = 17
10:00 Huntsville (35801) 3 + 3 + 17 = 23
12:00 Mobile (36618) 0 + 1 + 13 = 14
1:00 Birmingham (35244) 9 + 8 + 27 = 44
5:00 Mobile (36618) 1 + 1 + 3 = 5
1/26 Sunday
1:00 Cullman (35055) 0 + 0 + 16 = 16
1:00 Seattle (98109) 11 + 5 + 7 = 23
2/1 Saturday
2:00 Leeds (35094) 3 + 1 + 8 = 12
Alaska
1/25 Saturday
1:00 ANCHORAGE (99503) 6 + 1 + 13 = 20
1/26 Sunday
1:00 ANCHORAGE (99503) 5 + 0 + 15 = 20
1:00 Fairbanks (99701) 5 + 7 + 13 = 25
Alberta
1/25 Saturday
10:00 Edmonton (T5E4C3) 0 + 2 + 15 = 17
10:00 WETASKIWIN (T9A3P5) 4 + 1 + 11 = 16
10:00 Lloydminster (T9V 2H3) 2 + 1 + 11 = 14
10:15 Calgary (T3C 0K2) 1 + 2 + 20 = 23
10:30 St. Albert (T8N 6A7) 8 + 7 + 18 = 33
12:30 Edmonton (T5E4C3) 0 + 0 + 12 = 12
1:00 Lloydminster (T9V 2H3) 0 + 0 + 8 = 8
1:30 St. Albert (T8N 6A7) 7 + 1 + 9 = 17
2:00 Grande Prairie (T8V 0V3) 6 + 5 + 7 = 18
4:00 WETASKIWIN (T9A3P5) 6 + 4 + 6 = 16
5:30 Toronto (M4E 1E8) 9 + 6 + 5 = 20
1/26 Sunday
1:00 St. Albert (T8N 6A7) 7 + 3 + 10 = 20
2:00 Grande Prairie (T8V 0V3) 5 + 4 + 13 = 22
3:00 Calgary (T2E 8P1) 4 + 7 + 25 = 36
1/28 Tuesday
5:45 Edmonton (T5N 1R7) 2 + 2 + 13 = 17
1/29 Wednesday
6:00 Sherwood Park (T8A4L7) 4 + 1 + 5 = 10
1/30 Thursday
6:00 St. Albert (T8N 6A7) 3 + 1 + 6 = 10
1/31 Friday
5:30 Calgary (T2E 8P1) 4 + 11 + 13 = 28
2/1 Saturday
10:30 St. Albert (T8N 6A7) 6 + 2 + 8 = 16
11:00 Grande Prairie (T8V 0V3) 5 + 1 + 7 = 13
4:00 Grande Prairie (T8V 0V3) 2 + 3 + 7 = 12
2/2 Sunday
11:00 Grande Prairie (T8V 0V3) 4 + 3 + 7 = 14
12:00 Calgary (T2E 8P1) 6 + 7 + 21 = 34
12:00 Edmonton (T5J3K1) 2 + 2 + 10 = 14
4:00 Grande Prairie (T8V 0V3) 3 + 2 + 9 = 14
Arizona
1/25 Saturday
12:01 Tempe (85281) 0 + 0 + 38 = 38
11:00 Phoenix (85016) 7 + 3 + 14 = 24
12:00 Yuma (85364) 2 + 0 + 19 = 21
12:00 Phoenix (85028) 4 + 1 + 13 = 18
3:00 Glendale (85302) 7 + 8 + 22 = 37
1/26 Sunday
10:00 TEMPE (85282) 1 + 2 + 17 = 20
11:00 Tucson (85719) 1 + 5 + 28 = 34
12:01 Chandler (85226) 2 + 6 + 8 = 16
12:15 Phoenix (85020) 0 + 2 + 20 = 22
1:00 TEMPE (85282) 2 + 3 + 18 = 23
2:00 Phoenix (85020) 2 + 0 + 13 = 15
3:00 Chandler (85226) 2 + 1 + 5 = 8
1/27 Monday
6:00 Phoenix (85016)
1/28 Tuesday
5:30 Mesa (85204) 1 + 1 + 16 = 18
1/29 Wednesday
3:00 Yuma (85364) 1 + 0 + 9 = 10
2/1 Saturday
11:00 Anthem/Phoenix (85086) 0 + 2 + 11 = 13
1:00 Anthem/Phoenix (85086) 1 + 1 + 8 = 10
2:00 Phoenix (85028) 0 + 2 + 4 = 6
2:00 Gilbert (85234) 1 + 1 + 28 = 30
2/2 Sunday
1:00 Glendale (85307) 9 + 9 + 33 = 51
Arkansas
1/25 Saturday
12:01 Rogers (72758) 1 + 3 + 20 = 24
10:00 Paragould (72450) 1 + 0 + 7 = 8
12:00 Russellville (72801) 0 + 0 + 19 = 19
12:00 Russellville (72801) 0 + 0 + 8 = 8
2:00 Fort Smith (72901) 1 + 1 + 5 = 7
1/26 Sunday
10:00 Paragould (72450) 0 + 1 + 11 = 12
12:00 Cabot (72023) 0 + 0 + 18 = 18
12:00 Cabot (72023) 0 + 0 + 6 = 6
1:00 Rogers (72758) 6 + 6 + 11 = 23
1/29 Wednesday
5:00 Fort Smith (72901) 3 + 0 + 4 = 7
2/1 Saturday
12:00 Fort Smith (72901) 1 + 0 + 3 = 4
12:00 Rogers (72756) 1 + 1 + 14 = 16
British Columbia
1/25 Saturday
12:01 Prince George (V2M 0A1) 0 + 2 + 6 = 8
10:00 Fort St. John (V1J 1Y7) 7 + 2 + 7 = 16
10:00 Mission (V2V 1E4) 1 + 2 + 7 = 10
11:30 Langley (V4W4G1) 2 + 4 + 13 = 19
2:30 Langley (V4W4G1) 5 + 1 + 15 = 21
3:00 Vancouver (V5R 5W2) 4 + 2 + 19 = 25
6:00 Langley (V4W4G1) 3 + 1 + 9 = 13
1/26 Sunday
11:00 Surrey (V3T2W1) 0 + 0 + 9 = 9
12:00 Chilliwack (V2P2N2) 11 + 13 + 8 = 32
12:00 Chilliwack (V2P2N2) 4 + 8 + 8 = 20
12:30 Prince George (V2M 0A1) 3 + 4 + 5 = 12
1:00 Vancouver (V5K 1Z9) 6 + 2 + 12 = 20
1:00 Abbotsford (V253X8) 13 + 5 + 12 = 30
1/31 Friday
4:30 Burnaby (V5H 2C3) 1 + 1 + 15 = 17
5:00 Nanaimo (V9T4K6) 0 + 12 + 28 = 40
6:00 Langley (V4W4G1) 3 + 1 + 3 = 7
2/1 Saturday
11:00 New West (V3L 2B8) 0 + 2 + 7 = 9
11:30 Langley (V4W4G1) 1 + 2 + 8 = 11
11:45 Chilliwack (V2P 6Z6) 5 + 1 + 2 = 8
12:30 Surrey (V3W 7X4) 4 + 5 + 8 = 17
2:30 Langley (V4W4G1) 2 + 2 + 11 = 15
6:00 Langley (V4W4G1) 0 + 0 + 8 = 8
2/2 Sunday
11:00 Vancouver (V5R 5W2) 3 + 0 + 14 = 17
11:30 Port Coquitlam (V3B 3N4) 1 + 4 + 9 = 14
11:30 Victoria (V8T 4E4) 8 + 8 + 10 = 26
12:30 Prince George (V2M 0A1) 2 + 1 + 11 = 14
1:00 Abbotsford (V253X8) 5 + 2 + 9 = 16
1:00 Vancouver (V5K 1Z9) 1 + 3 + 4 = 8
California
1/25 Saturday
12:01 Winnetka (91306) 0 + 0 + 15 = 15
12:01 Fresno (93720) 1 + 0 + 25 = 26
9:00 Downey (90240) 24 + 8 + 0 = 32
9:00 Lemon Grove (91945) 1 + 2 + 21 = 24
10:00 Glendale (91203) 4 + 9 + 83 = 96
11:00 Winnetka (91306) 0 + 1 + 6 = 7
11:00 Los Angeles (90019) 7 + 6 + 23 = 36
11:00 Hesperia (92345) 6 + 4 + 14 = 24
11:00 Santa Clara (95054) 6 + 5 + 54 = 65
11:00 Modesto (95350) 3 + 3 + 30 = 36
11:00 Santa Clara (95054) 7 + 10 + 59 = 76
11:00 Hesperia (92345) 4 + 3 + 7 = 14
11:00 Mission Viejo (92692) 5 + 7 + 17 = 29
11:30 northridge (91326) 1 + 0 + 8 = 9
12:00 Huntington Beach (92648) 5 + 2 + 20 = 27
12:00 San Francisco (94117) 8 + 0 + 13 = 21
12:00 Clovis (93612) 6 + 7 + 28 = 41
12:00 Signal Hill (90755) 3 + 1 + 6 = 10
12:00 Rohnert Park (94928) 7 + 4 + 8 = 19
12:00 Westlake Village (91362) 8 + 3 + 1 = 12
12:00 Folsom (95630) 0 + 4 + 9 = 13
1:00 Pittsburg (94565) 0 + 0 + 10 = 10
1:00 Riverside (92503) 1 + 2 + 15 = 18
1:00 Downey (90240) 6 + 2 + 30 = 38
2:00 Winnetka (91306) 1 + 1 + 2 = 4
2:00 Los Angeles (90019) 4 + 2 + 17 = 23
2:00 Baldwin Park (91706) 0 + 0 + 12 = 12
2:30 Elk Grove (95624) 2 + 9 + 41 = 52
2:30 San Francisco (94117) 6 + 0 + 10 = 16
4:00 Winnetka (91306) 1 + 1 + 5 = 7
4:00 Torrance (90504) 1 + 0 + 9 = 10
4:00 Anderson (96007) 4 + 2 + 23 = 29
5:00 Riverside (92503) 0 + 0 + 19 = 19
5:30 Torrance (90503) 9 + 7 + 7 = 23
11:00 Riverside (92503) 1 + 0 + 27 = 28
11:00 Temecula (92591) 1 + 3 + 35 = 39
1/26 Sunday
San Diego (92126) 14 + 9 + 41 = 64
9:00 Downey (90240) 0 + 1 + 28 = 29
9:00 Manteca (95337) 0 + 4 + 4 = 8
9:00 Bakersfield (93313) 4 + 4 + 27 = 35
9:00 Bakersfield (93313) 0 + 1 + 11 = 12
10:00 Pasadena (91105) 9 + 3 + 40 = 52
10:00 Berkeley (94704) 11 + 7 + 26 = 44
10:00 Berkeley (94704) 1 + 3 + 18 = 22
11:00 Pasadena (91106)
11:00 Fresno (93710) 1 + 0 + 12 = 13
11:00 Santa Clara (95054) 5 + 7 + 40 = 52
11:00 Roseville (95661) 2 + 11 + 22 = 35
11:00 Winnetka (91306) 1 + 3 + 1 = 5
11:30 Temecula (92591) 7 + 9 + 22 = 38
11:30 Los Angeles (90010) 2 + 0 + 7 = 9
11:30 northridge (91324) 5 + 0 + 3 = 8
12:00 Norwalk (90650) 1 + 2 + 17 = 20
12:00 Salinas (93906) 1 + 0 + 8 = 9
12:00 Eureka (95501) 4 + 8 + 7 = 19
12:00 Upland (91786) 4 + 8 + 23 = 35
12:00 Signal Hill (90755) 1 + 1 + 6 = 8
12:00 Fremont (94536) 2 + 3 + 10 = 15
1:00 Riverside (92503) 3 + 0 + 10 = 13
1:00 Hemet (92544) 0 + 1 + 6 = 7
1:30 Elk Grove (95624) 2 + 8 + 21 = 31
2:00 San Rafael (94901) 12 + 6 + 3 = 21
2:15 Santa Clara (95054) 7 + 4 + 29 = 40
2:30 Northridge (91324) 0 + 0 + 8 = 8
3:00 Montebello (90640) 0 + 0 + 30 = 30
3:00 Upland (91786) 5 + 2 + 12 = 19
4:30 Davis (95616) 0 + 1 + 12 = 13
5:00 Riverside (92503) 1 + 0 + 15 = 16
5:00 Ventura (93003) 2 + 6 + 10 = 18
5:00 Downey (90240) 0 + 1 + 28 = 29
1/27 Monday
5:00 Downey (90240) 2 + 0 + 25 = 27
1/28 Tuesday
5:00 San Francisco (94117) 20 + 0 + 10 = 30
5:00 Downey (90240) 2 + 2 + 25 = 29
6:00 Riverside (92503) 2 + 4 + 18 = 24
6:00 Salinas (93906) 1 + 0 + 9 = 10
6:30 Winnetka (91306) 0 + 0 + 5 = 5
1/29 Wednesday
5:00 Modesto (95350) 1 + 3 + 13 = 17
5:00 Salinas (93906) 4 + 3 + 25 = 32
5:30 Northridge (91324) 3 + 0 + 6 = 9
5:30 Davis (95616) 0 + 0 + 12 = 12
6:00 Clovis (93612) 1 + 1 + 13 = 15
1/30 Thursday
5:00 Fresno (93712-3929) 2 + 0 + 7 = 9
5:00 Downey (90240) 2 + 1 + 25 = 28
5:30 San Francisco (94132) 0 + 2 + 10 = 12
1/31 Friday
2:00 Torrance (90503) 3 + 4 + 5 = 12
6:00 Fresno (93710) 0 + 0 + 10 = 10
6:30 Winnetka (91306) 0 + 0 + 7 = 7
2/1 Saturday
10:00 Concord (94520) 1 + 4 + 35 = 40
11:00 Mission Viejo (92692) 6 + 9 + 15 = 30
11:00 Hesperia (92345) 2 + 1 + 11 = 14
11:00 Santa Clara (95054) 5 + 5 + 29 = 39
11:00 Santa Maria (93454)
11:00 Winnetka (91306) 0 + 1 + 6 = 7
11:00 Manhattan Beach Blvd. (90266) 3 + 0 + 15 = 18
12:00 Fountain Valley (92708) 6 + 5 + 10 = 21
1:30 Winnetka (91306) 0 + 0 + 6 = 6
1:30 Winnetka (91306) 1 + 1 + 4 = 6
2:00 Irvine (92618) 1 + 2 + 12 = 15
2:15 Santa Clara (95054) 6 + 3 + 36 = 45
3:00 Huntington Beach (92647) 3 + 1 + 6 = 10
2/2 Sunday
11:00 Santa Clara (95051) 7 + 1 + 12 = 20
11:00 Berkeley (94704) 0 + 4 + 11 = 15
11:00 Winnetka (91306) 0 + 1 + 7 = 8
11:00 Pasadena (91106)
12:00 Santa Monica (90401) 13 + 2 + 5 = 20
12:30 Redding (96003) 6 + 5 + 16 = 27
2:00 Hanford (93230) 2 + 2 + 4 = 8
3:00 Montebello (90640) 1 + 0 + 25 = 26
Colorado
1/25 Saturday
9:00 Colorado Springs (80918) 8 + 10 + 34 = 52
10:00 Littleton (80123) 3 + 2 + 10 = 15
10:30 Colorado Springs (80918) 1 + 0 + 22 = 23
11:00 Aurora (80012) 1 + 2 + 11 = 14
1:00 Littleton (80123) 4 + 3 + 11 = 18
1:00 Fort Collins (80526) 11 + 9 + 23 = 43
3:00 Colorado Springs (80909) 5 + 2 + 16 = 23
1/26 Sunday
10:00 Denver (80203) 2 + 4 + 9 = 15
1:00 Littleton (80123) 5 + 2 + 27 = 34
1:00 Aurora (80014) 3 + 5 + 21 = 29
1:00 Fort Collins (80526) 9 + 6 + 4 = 19
1:30 Colorado Springs (80920) 5 + 2 + 6 = 13
2:00 Durango (81301) 10 + 1 + 3 = 14
5:00 Pueblo (81001) 1 + 4 + 15 = 20
2/1 Saturday
10:00 Colorado Springs (80918) 3 + 4 + 11 = 18
2:00 Longmont (80501) 3 + 3 + 10 = 16
3:00 Greeley (80631) 2 + 3 + 15 = 20
2/2 Sunday
1:00 Fort Collins (80526) 9 + 5 + 15 = 29
Connecticut
1/25 Saturday
11:00 Enfield (06082) 5 + 6 + 29 = 40
11:00 Newington (06111) 1 + 4 + 16 = 21
2:00 Newington (06111) 0 + 0 + 14 = 14
2:30 Enfield (06082) 4 + 2 + 16 = 22
1/26 Sunday
11:00 Enfield (06082) 6 + 6 + 25 = 37
2/1 Saturday
11:00 Newington (06111) 3 + 5 + 16 = 24
11:00 Manchester (06040) 0 + 0 + 7 = 7
2:00 Newington (06111) 1 + 1 + 9 = 11
Delaware
1/25 Saturday
9:30 smyrna (19977) 6 + 1 + 7 = 14
1/26 Sunday
12:00 Wilmington (19810) 3 + 6 + 20 = 29
2:30 Wilmington (19810) 3 + 1 + 16 = 20
District of Columbia
1/26 Sunday
10:00 Washington (20003) 11 + 6 + 13 = 30
2:30 Washington (20003) 12 + 2 + 16 = 30
Florida
1/25 Saturday
11:00 Clermont (34711) 1 + 3 + 16 = 20
11:00 Pensacola (32504) 1 + 1 + 9 = 11
11:00 Plantation (33317) 6 + 2 + 10 = 18
11:00 Cape Coral (33990) 8 + 8 + 25 = 41
11:00 Maitland (32751) 4 + 3 + 32 = 39
11:00 Jacksonville (32216) 1 + 3 + 14 = 18
12:00 Tampa (33617) 16 + 14 + 40 = 70
2:00 Cape Coral (33990) 11 + 7 + 11 = 29
3:00 Winter Haven (33884) 0 + 0 + 14 = 14
4:30 Altamonte Springs (32701) 0 + 1 + 7 = 8
5:30 Jacksonville (32205) 3 + 1 + 9 = 13
6:00 Palm Bay (32905) 3 + 0 + 15 = 18
6:00 Davie (33024) 3 + 4 + 27 = 34
6:00 Fort Myers (33908) 1 + 1 + 15 = 17
1/26 Sunday
11:00 Orlando (32803) 3 + 3 + 28 = 34
12:00 Tallahassee (32310) 3 + 3 + 7 = 13
12:00 Ocala (34474) 1 + 2 + 6 = 9
1:00 PANAMA CITY (32401) 3 + 2 + 13 = 18
2:30 Tallahassee (32310) 0 + 0 + 4 = 4
3:00 Hollywood (33024) 0 + 5 + 25 = 30
1/27 Monday
2:00 Orlando (32828) 4 + 6 + 28 = 38
6:00 Fort Myers (33908) 2 + 0 + 11 = 13
1/28 Tuesday
6:00 Tallahassee (32310) 0 + 0 + 4 = 4
1/29 Wednesday
5:00 Orlando (32837) 1 + 0 + 25 = 26
5:00 Cape Coral (33990) 2 + 1 + 12 = 15
1/30 Thursday
3:00 Crestview (32536) 4 + 4 + 21 = 29
5:30 Tampa (33647) 0 + 3 + 7 = 10
6:00 Miami (33186) 2 + 3 + 41 = 46
6:00 Port St Lucie (34952-3402) 0 + 4 + 13 = 17
6:00 Tampa (33619) 4 + 1 + 26 = 31
1/31 Friday
9:00 SARASOTA (34232) 1 + 2 + 6 = 9
9:00 Seminole (33772) 2 + 1 + 37 = 40
9:00 SARASOTA (34232) 6 + 1 + 7 = 14
6:00 Cape Coral (33990) 0 + 3 + 2 = 5
6:30 Kissimmee (34741) 1 + 2 + 14 = 17
2/1 Saturday
10:00 Altamonte Springs (32701) 1 + 3 + 9 = 13
10:30 Tampa (33647) 9 + 2 + 8 = 19
10:30 Cocoa (32927) 2 + 0 + 14 = 16
11:00 Deland (32724) 11 + 6 + 6 = 23
11:00 PALM HARBOR (34684) 5 + 3 + 16 = 24
11:00 Lauderhill (33351) 2 + 0 + 15 = 17
12:00 Crestview (32536) 12 + 7 + 18 = 37
1:00 Lake Worth (33462) 5 + 1 + 24 = 30
6:00 Bradenton (34203) 5 + 4 + 10 = 19
2/2 Sunday
11:00 Coconut Creek (33073) 3 + 0 + 12 = 15
12:00 Miami (33174) 2 + 1 + 13 = 16
12:30 West Melbourne (32904) 5 + 3 + 16 = 24
1:00 West Palm Beach (33409) 3 + 3 + 13 = 19
3:00 Tallahassee (32310) 5 + 1 + 10 = 16
Georgia
1/25 Saturday
12:01 Duluth (30096) 0 + 2 + 29 = 31
11:00 Cumming (30040) 11 + 16 + 32 = 59
12:00 Roswell (30075) 7 + 6 + 8 = 21
12:00 COLUMBUS (31909) 0 + 5 + 8 = 13
12:00 Duluth (30096) 5 + 1 + 15 = 21
1:30 COLUMBUS (31909) 0 + 3 + 8 = 11
1:30 Cumming (30040) 1 + 4 + 8 = 13
4:30 Decatur (30033) 5 + 4 + 6 = 15
5:00 Peachtree City (30269) 2 + 4 + 14 = 20
1/26 Sunday
12:00 COLUMBUS (31909) 2 + 2 + 9 = 13
1:00 Milton (30004) 0 + 2 + 8 = 10
1:00 Newnan (30265) 2 + 2 + 3 = 7
1:30 COLUMBUS (31909) 2 + 2 + 10 = 14
1/28 Tuesday
4:00 Kennesaw (30144) 3 + 7 + 16 = 26
1/30 Thursday
4:30 Tucker (30084) 14 + 6 + 2 = 22
1/31 Friday
6:00 Duluth (30096) 2 + 0 + 6 = 8
2/1 Saturday
10:00 Braselton (30542) 4 + 6 + 10 = 20
11:00 Augusta (30907) 6 + 3 + 16 = 25
11:00 Warner Robins (31088) 5 + 1 + 14 = 20
2:00 Augusta (30907) 4 + 1 + 12 = 17
Hawaii
1/25 Saturday
12:00 HONOLULU (96817) 4 + 2 + 24 = 30
12:00 Aiea (96701) 0 + 1 + 7 = 8
3:00 HONOLULU (96817) 2 + 1 + 25 = 28
1/26 Sunday
12:00 HONOLULU (96817) 1 + 1 + 7 = 9
1:00 Honolulu (96814) 3 + 2 + 14 = 19
4:00 Honolulu (96814) 1 + 1 + 7 = 9
2/1 Saturday
12:00 HONOLULU (96817) 5 + 3 + 10 = 18
2/2 Sunday
1:00 Honolulu (96814) 0 + 1 + 4 = 5
Idaho
1/25 Saturday
10:00 Idaho Falls (83402) 6 + 6 + 7 = 19
11:00 Meridian (83642) 1 + 2 + 24 = 27
1:00 Moscow (83843) 4 + 3 + 9 = 16
6:00 Twin Falls (83301) 3 + 1 + 5 = 9
1/26 Sunday
10:00 Boise (83709) 2 + 4 + 6 = 12
11:00 Nampa (83651) 4 + 2 + 13 = 19
1/28 Tuesday
6:00 Boise (83705) 0 + 0 + 14 = 14
Illinois
1/25 Saturday
12:01 Buffalo Grove (60089) 1 + 3 + 26 = 30
12:01 Elmhurst (60126) 1 + 0 + 17 = 18
12:01 Loves Park (61111) 0 + 0 + 6 = 6
12:01 Geneva (60134) 0 + 1 + 7 = 8
12:01 Berwyn (60402) 1 + 0 + 22 = 23
9:30 Downers Grove (60515) 9 + 12 + 8 = 29
10:00 Chicago (60607) 13 + 7 + 0 = 20
10:00 Carbondale (62901) 0 + 1 + 5 = 6
10:00 Berwyn (60402) 2 + 1 + 19 = 22
10:30 Chicago (60614) 1 + 2 + 11 = 14
12:00 Chicago (60618) 5 + 2 + 6 = 13
12:00 urbana (61801) 0 + 1 + 15 = 16
12:00 Loves Park (61111) 3 + 3 + 12 = 18
12:00 Springfield (62703) 0 + 4 + 14 = 18
12:30 Plainfield (60544) 3 + 1 + 15 = 19
1:00 Glenview (60025) 2 + 4 + 6 = 12
2:00 Antioch (60002) 1 + 1 + 6 = 8
2:00 Berwyn (60402) 1 + 2 + 19 = 22
3:00 Frankfort (60423) 1 + 4 + 16 = 21
3:00 Loves Park (61111) 2 + 1 + 12 = 15
4:00 Geneva (60134) 2 + 2 + 5 = 9
1/26 Sunday
10:00 Berwyn (60402) 2 + 3 + 21 = 26
12:00 Bloomington (61701) 5 + 2 + 9 = 16
12:00 Edwardsville (62025) 9 + 5 + 13 = 27
12:00 Buffalo Grove (60089) 3 + 2 + 23 = 28
12:00 Oak Park (60302) 9 + 0 + 3 = 12
12:00 carbondale (62901) 2 + 1 + 16 = 19
12:30 La Grange (60525) 2 + 2 + 4 = 8
12:30 Skokie (60077) 4 + 6 + 8 = 18
1:00 Chicago (60618) 0 + 0 + 8 = 8
1:00 Tinley Park (60477) 1 + 4 + 32 = 37
2:00 Antioch (60002) 1 + 2 + 5 = 8
3:00 ROCKFORD (61108) 0 + 0 + 6 = 6
6:00 Rockford (61109) 0 + 0 + 4 = 4
1/27 Monday
5:00 Niles (60714) 5 + 6 + 12 = 23
1/28 Tuesday
5:00 Niles (60714) 5 + 2 + 8 = 15
6:00 Chicago (60618) 1 + 1 + 9 = 11
1/29 Wednesday
5:00 Loves Park (61111) 2 + 0 + 7 = 9
5:00 Antioch (60002) 0 + 0 + 8 = 8
1/30 Thursday
5:30 Springfield (62703) 1 + 3 + 13 = 17
6:00 Chicago (60614) 1 + 0 + 13 = 14
1/31 Friday
5:00 Antioch (60002) 0 + 0 + 11 = 11
2/1 Saturday
10:00 Berwyn (60402) 3 + 0 + 11 = 14
12:00 Washington (61571) 6 + 3 + 19 = 28
12:00 Loves Park (61111) 0 + 0 + 5 = 5
12:00 Quincy (62305) 2 + 2 + 6 = 10
12:30 Plainfield (60544) 3 + 3 + 4 = 10
2:00 Berwyn (60402) 3 + 0 + 13 = 16
3:00 Loves Park (61111) 0 + 0 + 5 = 5
3:00 Frankfort (60423) 4 + 6 + 14 = 24
3:00 Antioch (60002) 2 + 5 + 9 = 16
4:30 Chicago (60607)
2/2 Sunday
10:00 Berwyn (60402) 1 + 4 + 16 = 21
12:00 Edwardsville (62025) 4 + 3 + 7 = 14
12:00 Springfield (62703) 0 + 0 + 8 = 8
12:00 Buffalo Grove (60089) 6 + 3 + 19 = 28
12:30 Skokie (60077) 2 + 4 + 9 = 15
1:00 Chicago (60618) 3 + 1 + 18 = 22
1:00 Tinley Park (60477) 2 + 3 + 17 = 22
2:00 Antioch (60002) 0 + 0 + 16 = 16
3:00 Rockford (61109) 5 + 0 + 6 = 11
6:00 Rockford (61109) 1 + 0 + 7 = 8
Indiana
1/25 Saturday
10:00 Indianapolis (46227) 0 + 2 + 21 = 23
1:15 Indianapolis (46227) 0 + 2 + 16 = 18
2:00 Indianapolis (46250) 1 + 1 + 15 = 17
3:00 Indianapolis (46268) 7 + 6 + 8 = 21
3:00 Greenfield (46140) 3 + 1 + 4 = 8
3:00 Lafayette (47904) 0 + 3 + 20 = 23
5:00 Evansville (47711) 1 + 1 + 9 = 11
6:00 Evansville (47711) 0 + 1 + 7 = 8
10:00 Indianapolis (46250) 0 + 0 + 6 = 6
1/26 Sunday
11:00 Indianapolis (46268) 1 + 2 + 1 = 4
12:00 Indianapolis (46250) 1 + 4 + 17 = 22
12:00 Indianapolis (46227) 3 + 4 + 15 = 22
12:30 Bloomington (47404) 5 + 3 + 10 = 18
1:30 Muncie (47303) 2 + 1 + 24 = 27
1/27 Monday
5:00 Indianapolis (46227) 3 + 2 + 27 = 32
1/28 Tuesday
5:00 Mooresville (46158) 1 + 3 + 8 = 12
1/30 Thursday
4:20 Indianapolis (46241) 10 + 1 + 9 = 20
6:00 Lafayette (47904) 1 + 1 + 7 = 9
1/31 Friday
5:00 Evansville (47711) 2 + 1 + 5 = 8
6:00 Evansville (47711) 1 + 1 + 6 = 8
2/1 Saturday
10:30 Indianapolis (46227) 2 + 1 + 15 = 18
11:00 Muncie (47303) 0 + 2 + 8 = 10
1:30 Indianapolis (46227) 3 + 2 + 21 = 26
3:00 Muncie (47303) 1 + 1 + 11 = 13
3:00 Indianapolis (46268) 5 + 4 + 12 = 21
5:00 Evansville (47711) 1 + 3 + 8 = 12
6:00 Evansville (47711) 1 + 2 + 8 = 11
2/2 Sunday
2:00 indianapolis (46241) 3 + 0 + 13 = 16
Iowa
1/25 Saturday
10:00 Ames (50014) 0 + 2 + 12 = 14
12:00 Ankeny (50023) 3 + 1 + 11 = 15
1/26 Sunday
11:00 Des Moines (50325) 10 + 8 + 29 = 47
1/29 Wednesday
5:00 Keokuk (52632) 1 + 0 + 8 = 9
2/2 Sunday
11:00 West Des Moines (50266) 0 + 4 + 12 = 16
Kansas
1/25 Saturday
12:01 Lenexa (66210) 0 + 1 + 18 = 19
9:00 Hutchinson (67501) 3 + 2 + 5 = 10
12:00 Great Bend (67530) 1 + 2 + 8 = 11
12:15 Lenexa (66210) 3 + 2 + 15 = 20
12:30 Lawrence (66044) 4 + 6 + 16 = 26
2:30 Lenexa (66210) 10 + 3 + 25 = 38
3:00 Lawrence (66044) 1 + 3 + 6 = 10
1/26 Sunday
12:15 Lenexa (66210) 3 + 3 + 14 = 20
12:30 Lawrence (66044) 4 + 7 + 17 = 28
2:30 Lenexa (66210) 0 + 2 + 15 = 17
3:00 Lawrence (66044) 4 + 1 + 15 = 20
1/28 Tuesday
2:00 Great Bend (67530) 8 + 3 + 2 = 13
2/1 Saturday
12:00 Great Bend (67530) 2 + 1 + 7 = 10
2/2 Sunday
12:30 Mission (66202)
Kentucky
1/26 Sunday
11:00 Lexington (40503) 3 + 0 + 5 = 8
11:45 Bowling Green (42101) 0 + 0 + 10 = 10
1:00 Winchester (40391) 2 + 5 + 13 = 20
2:30 Bowling Green (42101) 1 + 2 + 7 = 10
1/29 Wednesday
5:00 Lexington (40503) 1 + 1 + 14 = 16
2/1 Saturday
12:00 Louisville (40220) 7 + 0 + 32 = 39
2/2 Sunday
11:00 Lexington (40503) 1 + 1 + 3 = 5
1:00 Winchester (40391) 1 + 2 + 9 = 12
2:00 Louisville (40220) 4 + 3 + 10 = 17
Louisiana
1/25 Saturday
11:00 Baton Rouge (70816) 3 + 1 + 17 = 21
11:00 Monroe (71201) 0 + 4 + 7 = 11
1/26 Sunday
12:00 Broussard (70518) 1 + 0 + 8 = 9
12:00 Baton Rouge (70817) 3 + 0 + 14 = 17
1:00 Bossier City (71111) 0 + 3 + 10 = 13
1/28 Tuesday
6:00 Ruston (71270) 0 + 2 + 2 = 4
2/1 Saturday
12:00 Lafayette (70503) 2 + 2 + 7 = 11
1:30 Alexandria (71301) 1 + 0 + 15 = 16
3:00 Ruston (71270) 0 + 2 + 4 = 6
2/2 Sunday
12:00 Metairie (70003) 1 + 5 + 15 = 21
Maine
1/26 Sunday
12:00 Augusta (04330) 1 + 5 + 14 = 20
12:00 Westbrook (04092) 11 + 5 + 19 = 35
2/1 Saturday
9:00 South Portland (04106) 5 + 0 + 15 = 20
Manitoba
1/25 Saturday
9:00 Winnipeg (R2G 1L4) 1 + 3 + 14 = 18
1/26 Sunday
12:00 Winnipeg (R3T 2C5) 4 + 7 + 19 = 30
Maryland
1/25 Saturday
Crofton (21114) 7 + 9 + 14 = 30
10:30 Gaithersburg (20876) 0 + 1 + 9 = 10
11:30 Rockville (20852) 6 + 6 + 11 = 23
1/26 Sunday
11:00 Glen Burnie (21061) 11 + 5 + 30 = 46
11:30 Rockville (20852) 9 + 7 + 19 = 35
12:00 Hunt Valley (21030) 12 + 11 + 13 = 36
2:00 Rockville (20852) 2 + 6 + 12 = 20
1/31 Friday
6:00 Rockville (20852) 0 + 4 + 6 = 10
2/1 Saturday
11:00 Annapolis (21401) 5 + 6 + 15 = 26
11:30 Rockville (20852) 5 + 2 + 12 = 19
12:00 Abingdon (21009) 13 + 4 + 25 = 42
3:00 Annapolis (21401) 7 + 4 + 25 = 36
2/2 Sunday
10:45 Rockville (20852) 3 + 3 + 12 = 18
12:00 Bel Air (21014) 3 + 3 + 9 = 15
12:00 Hunt Valley (21030) 5 + 8 + 9 = 22
1:00 Rockville (20852) 3 + 2 + 7 = 12
Massachusetts
1/25 Saturday
9:30 Lexington (02420) 2 + 3 + 12 = 17
10:30 CARVER (02330) 6 + 2 + 18 = 26
1/26 Sunday
10:00 New Bedford (02745) 0 + 0 + 5 = 5
11:30 Somerville (02144) 5 + 3 + 12 = 20
11:30 Brookline (02446) 2 + 3 + 13 = 18
12:00 Fall River (02723) 0 + 4 + 6 = 10
12:00 Lexington (02421) 16 + 2 + 4 = 22
12:30 Saugus (01906) 4 + 2 + 13 = 19
2/1 Saturday
11:00 BROCKTON (02302) 0 + 2 + 10 = 12
12:30 Abington (02351) 0 + 3 + 10 = 13
2/2 Sunday
11:00 Hadley (01035) 10 + 0 + 11 = 21
12:00 Fall River (02723) 0 + 1 + 3 = 4
12:30 Norton (02766) 7 + 4 + 25 = 36
Michigan
1/25 Saturday
12:01 Flint (48503) 1 + 1 + 12 = 14
11:00 Jackson (49201) 6 + 5 + 20 = 31
11:30 Garden City (48135) 1 + 1 + 16 = 18
12:00 Clinton Township (48038) 2 + 4 + 30 = 36
12:00 Kalamazoo (49009) 1 + 1 + 15 = 17
1:00 Muskegon (49441) 3 + 3 + 7 = 13
2:00 Jackson (49201) 5 + 2 + 16 = 23
2:00 Kentwood (49548) 1 + 4 + 19 = 24
3:00 Clinton Township (48038) 3 + 7 + 15 = 25
3:30 Garden City (48135) 0 + 3 + 14 = 17
5:00 Bay City (48706) 1 + 1 + 11 = 13
5:00 Kalamazoo (49009) 1 + 2 + 17 = 20
5:00 Jackson (49201) 3 + 1 + 11 = 15
11:00 Clinton Township (48038) 0 + 1 + 39 = 40
1/26 Sunday
11:30 Westland (48185) 2 + 0 + 16 = 18
12:00 Clinton Township (48038) 0 + 1 + 13 = 14
12:00 Houghton (49931) 3 + 2 + 14 = 19
12:00 Frankenmuth (48734) 2 + 1 + 13 = 16
1:00 Muskegon (49441) 3 + 3 + 7 = 13
3:00 Frankenmuth (48734) 3 + 1 + 4 = 8
1/27 Monday
5:00 Kalamazoo (49009) 0 + 2 + 18 = 20
1/29 Wednesday
6:00 Garden City (48135) 0 + 1 + 7 = 8
1/30 Thursday
4:00 MONROE (48161-3956) 0 + 0 + 16 = 16
2/1 Saturday
11:00 Grandville (49418) 0 + 1 + 6 = 7
11:30 Garden City (48135) 1 + 0 + 13 = 14
12:00 Frankenmuth (48734) 1 + 1 + 5 = 7
12:00 Bay City (48706) 1 + 0 + 11 = 12
12:00 Clinton Township (48038) 1 + 2 + 21 = 24
3:00 Frankenmuth (48734) 2 + 1 + 1 = 4
3:00 Grandville (49418) 1 + 1 + 5 = 7
3:00 Bay City (48706) 1 + 1 + 14 = 16
3:00 Clinton Township (48038) 2 + 2 + 22 = 26
3:30 Garden City (48135) 2 + 1 + 10 = 13
2/2 Sunday
12:00 Grandville (49418) 0 + 0 + 8 = 8
12:00 Clinton Township (48038) 0 + 1 + 10 = 11
Minnesota
1/25 Saturday
10:00 Duluth (55807) 3 + 3 + 16 = 22
10:15 Roseville (55113) 18 + 6 + 30 = 54
11:00 Cambridge (55008) 5 + 4 + 10 = 19
11:00 northfield (55057) 13 + 6 + 11 = 30
12:00 Waite Park (56387) 2 + 5 + 11 = 18
12:00 Mankato (56001) 2 + 4 + 7 = 13
12:00 Saint Louis Park (55426) 5 + 5 + 18 = 28
1:30 Eden Prairie (55344) 4 + 2 + 7 = 13
1/26 Sunday
11:00 Duluth (55807) 2 + 2 + 8 = 12
12:00 Minneapolis (55406) 6 + 1 + 15 = 22
1/28 Tuesday
5:30 Eden Prairie (55344) 0 + 1 + 6 = 7
1/31 Friday
5:30 Oakdale (55128) 3 + 5 + 12 = 20
2/1 Saturday
11:00 Bloomington (55420) 1 + 0 + 7 = 8
11:00 northfield (55057) 15 + 3 + 8 = 26
12:00 Champlin (55316) 4 + 4 + 22 = 30
12:00 Mankato (56001) 2 + 4 + 4 = 10
1:30 Winona (55987) 4 + 2 + 14 = 20
2/2 Sunday
12:00 Burnsville (55306) 1 + 8 + 29 = 38
Mississippi
1/25 Saturday
10:00 Hattiesburg (39402) 7 + 4 + 9 = 20
12:00 Pearl (39208) 0 + 1 + 9 = 10
12:00 Ridgeland (39157) 8 + 6 + 4 = 18
12:00 Gautier (39553) 2 + 7 + 41 = 50
5:00 Pearl (39208) 0 + 1 + 5 = 6
1/26 Sunday
12:00 Gautier (39553) 1 + 6 + 33 = 40
2:00 Pearl (39208) 1 + 1 + 12 = 14
2/1 Saturday
12:00 Gautier (39553) 0 + 3 + 7 = 10
12:00 Pearl (39208) 1 + 5 + 12 = 18
1:00 Starkville (39759) 4 + 3 + 16 = 23
5:00 Pearl (39208) 1 + 2 + 19 = 22
2/2 Sunday
12:00 Gautier (39553) 1 + 1 + 7 = 9
2:00 Pearl (39208) 0 + 0 + 6 = 6
Missouri
1/25 Saturday
12:01 Independence (64050) 0 + 0 + 8 = 8
12:01 Crestwood (63126) 1 + 3 + 32 = 36
9:00 West Plains (65775) 1 + 0 + 9 = 10
11:00 Ozark (65721) 1 + 6 + 22 = 29
12:00 Independence (64050-3705) 0 + 6 + 11 = 17
12:30 West Plains (65775) 1 + 0 + 9 = 10
1:30 Sedalia (65301) 3 + 5 + 24 = 32
2:00 Ozark (65721) 2 + 6 + 20 = 28
4:00 Creve Coeur (63141) 3 + 4 + 11 = 18
1/26 Sunday
10:30 Kansas City (64106) 0 + 2 + 4 = 6
12:00 Creve Coeur (63141) 3 + 3 + 10 = 16
12:30 Crestwood (63126) 6 + 11 + 21 = 38
1:30 Independence (64050) 0 + 1 + 4 = 5
1:30 Sedalia (65301) 3 + 4 + 14 = 21
2:00 Mountain Grove (65711)
1/28 Tuesday
5:30 St. Peters (63303) 0 + 1 + 9 = 10
1/29 Wednesday
6:30 Crestwood (63126) 0 + 3 + 27 = 30
1/31 Friday
5:30 St. Peters (63303) 4 + 1 + 18 = 23
2/1 Saturday
10:00 Columbia (65202) 10 + 1 + 21 = 32
12:00 Independence (64050-3705) 1 + 1 + 12 = 14
12:00 Saint Louis (63128) 3 + 3 + 8 = 14
5:30 Kansas City (64106) 0 + 10 + 9 = 19
2/2 Sunday
12:30 Crestwood (63126) 4 + 7 + 19 = 30
Montana
2/1 Saturday
11:00 Missoula (59801) 0 + 0 + 8 = 8
Nebraska
1/25 Saturday
10:00 McCook (69001) 10 + 6 + 4 = 20
11:00 Omaha (68134) 2 + 10 + 24 = 36
12:00 North Platte (69101) 0 + 3 + 3 = 6
1:00 Grand Island (68803) 2 + 0 + 7 = 9
1/26 Sunday
12:00 Kearney (68845) 2 + 4 + 9 = 15
12:00 Omaha (68144) 1 + 2 + 20 = 23
1:00 Lincoln (68506) 13 + 8 + 20 = 41
1/27 Monday
4:30 Omaha (68144) 0 + 1 + 14 = 15
1/28 Tuesday
11:00 Bellevue (68005) 2 + 2 + 19 = 23
1/29 Wednesday
12:00 Ralston (68127) 0 + 1 + 5 = 6
1/30 Thursday
9:00 Omaha (68116) 3 + 1 + 24 = 28
1/31 Friday
5:30 Omaha (68134) 12 + 10 + 19 = 41
Nevada
1/25 Saturday
11:30 Reno (89502) 5 + 1 + 11 = 17
12:00 Las Vegas (89146) 2 + 2 + 20 = 24
4:30 Reno (89502) 4 + 2 + 6 = 12
1/26 Sunday
11:00 Las vegas (89119) 3 + 1 + 8 = 12
2:00 Las Vegas (89121) 4 + 2 + 19 = 25
1/29 Wednesday
11:00 Las Vegas (89131) 4 + 4 + 20 = 28
2/1 Saturday
11:00 Las Vegas (89131) 3 + 3 + 14 = 20
New Brunswick
1/25 Saturday
11:00 Saint John (E2L2H3) 2 + 1 + 7 = 10
1/26 Sunday
12:30 Fredericton (E3B 3B9) 0 + 1 + 9 = 10
2/1 Saturday
11:00 Moncton (E1C2N4) 1 + 2 + 16 = 19
New Hampshire
1/25 Saturday
10:00 Londonderry (03053) 8 + 2 + 9 = 19
11:00 Rochester (03867) 0 + 3 + 15 = 18
2:00 Nashua (03063) 3 + 5 + 10 = 18
1/26 Sunday
10:00 Lebanon (03766) 0 + 1 + 7 = 8
1:00 Pelham (03076) 4 + 1 + 7 = 12
1/30 Thursday
5:00 Rochester (03867) 4 + 5 + 15 = 24
2/1 Saturday
10:00 Londonderry (03053) 6 + 5 + 20 = 31
2:00 Nashua (03063) 7 + 1 + 14 = 22
2/2 Sunday
10:00 Rochester (03867) 2 + 1 + 19 = 22
10:00 Lebanon (03766) 1 + 1 + 8 = 10
12:00 Manchester (03103) 5 + 2 + 12 = 19
New Jersey
1/25 Saturday
12:01 Boonton (07005) 2 + 0 + 26 = 28
12:01 Cedar Grove (07009) 0 + 0 + 5 = 5
8:00 Hillsdale (07642) 5 + 3 + 13 = 21
9:00 Cedar Grove (07009) 4 + 7 + 15 = 26
10:30 Hardyston (07419) 1 + 5 + 10 = 16
11:30 Cinnaminson (08077) 5 + 1 + 15 = 21
12:00 Livingston (07039) 11 + 16 + 10 = 37
12:00 FAIR HAVEN (07704-3372) 5 + 3 + 12 = 20
12:00 Hardyston (07419) 0 + 4 + 4 = 8
2:00 Cedar Grove (07009) 2 + 3 + 7 = 12
2:30 Cinnaminson (08077) 0 + 0 + 10 = 10
6:00 Clifton (07012) 0 + 0 + 9 = 9
1/26 Sunday
10:00 somerville (08876) 6 + 5 + 22 = 33
11:00 Hamilton (08619) 5 + 7 + 6 = 18
11:11 Randolph (07869) 8 + 5 + 13 = 26
11:30 Egg Harbor Township (08234) 5 + 4 + 19 = 28
12:00 Boonton (07005) 2 + 3 + 18 = 23
2:30 Cedar Grove (07009) 0 + 2 + 7 = 9
3:00 Pompton Plains (07444) 2 + 2 + 12 = 16
1/28 Tuesday
3:30 Cedar Grove (07009) 0 + 0 + 6 = 6
1/30 Thursday
7:30 Newark (07105) 0 + 0 + 4 = 4
1/31 Friday
3:00 Cedar Grove (07009) 0 + 0 + 5 = 5
6:00 Boonton (07005) 11 + 4 + 20 = 35
2/1 Saturday
10:00 Cedar Grove (07009) 0 + 3 + 6 = 9
12:00 FAIR HAVEN (07704-3372) 6 + 1 + 10 = 17
12:00 Haddon Township (08108) 5 + 13 + 23 = 41
2:00 Cedar Grove (07009) 3 + 0 + 9 = 12
2/2 Sunday
10:15 Randolph (07869) 6 + 2 + 12 = 20
New Mexico
1/26 Sunday
4:30 Las Cruces (88001) 1 + 1 + 10 = 12
New York
1/25 Saturday
New York (10075) 12 + 0 + 7 = 19
12:01 Kenmore (14217) 0 + 0 + 12 = 12
9:30 New York (10016) 3 + 3 + 21 = 27
10:00 Rochester (14623) 5 + 6 + 31 = 42
10:00 Catskill (12414) 0 + 5 + 11 = 16
11:00 Albany (12205) 1 + 0 + 6 = 7
11:00 Whitesboro (13492) 1 + 2 + 13 = 16
11:00 Mechanicville (12118) 1 + 2 + 15 = 18
11:00 Brooklyn (11229) 0 + 0 + 12 = 12
11:45 CROTON ON HUDSON (10520) 6 + 19 + 13 = 38
12:00 Nanuet (10954) 4 + 0 + 5 = 9
12:00 Williamsville (14221) 9 + 11 + 18 = 38
12:00 Lindenhurst (11757) 4 + 4 + 13 = 21
12:00 Binghamton (13905) 3 + 0 + 6 = 9
12:00 East Greenbush (12061) 0 + 0 + 12 = 12
1:30 Kenmore (14217) 1 + 1 + 16 = 18
2:00 Lynbrook (11563) 8 + 1 + 13 = 22
2:30 Selden (11784) 3 + 2 + 21 = 26
2:30 Brooklyn (11229) 0 + 0 + 16 = 16
3:00 Lindenhurst (11757) 2 + 2 + 15 = 19
1/26 Sunday
Brooklyn (11231) 22 + 3 + 12 = 37
9:30 New York (10016) 2 + 1 + 13 = 16
11:00 Rochester (14623) 3 + 0 + 28 = 31
11:00 Flushing (11354) 1 + 0 + 20 = 21
12:00 Rochester (14625) 8 + 2 + 6 = 16
12:00 Clifton Park (12065) 1 + 2 + 7 = 10
1:30 Kenmore (14217) 0 + 1 + 12 = 13
1:30 Flushing (11354) 6 + 1 + 20 = 27
2:00 Hyde Park (12538) 7 + 4 + 14 = 25
2:00 Lynbrook (11563) 1 + 1 + 12 = 14
2:00 Horseheads (14845) 13 + 2 + 11 = 26
2:30 Selden (11784) 1 + 3 + 17 = 21
1/27 Monday
5:00 Brooklyn (11232) 1 + 0 + 13 = 14
6:00 Eden (14057) 2 + 3 + 19 = 24
1/28 Tuesday
6:00 Selden (11784) 0 + 0 + 6 = 6
6:30 Brooklyn (11214) 3 + 0 + 16 = 19
1/29 Wednesday
5:30 Brooklyn (11229) 1 + 0 + 7 = 8
6:00 Selden (11784) 3 + 0 + 19 = 22
1/30 Thursday
6:00 Albany (12205) 3 + 2 + 11 = 16
6:00 Whitesboro (13492) 1 + 1 + 6 = 8
2/1 Saturday
9:30 New York (10016) 4 + 3 + 28 = 35
11:45 CROTON ON HUDSON (10520) 3 + 10 + 9 = 22
12:30 Wantagh (11793) 3 + 3 + 14 = 20
1:30 Kenmore (14217) 0 + 3 + 22 = 25
2/2 Sunday
9:30 New York (10016) 6 + 0 + 25 = 31
12:30 Wantagh (11793) 5 + 5 + 15 = 25
2:30 Selden (11784) 3 + 1 + 8 = 12
North Carolina
1/25 Saturday
9:30 Cary (27511) 8 + 7 + 17 = 32
10:00 Hickory (28602) 3 + 3 + 8 = 14
10:20 Wilson (27893) 0 + 0 + 9 = 9
10:30 High Point (27263) 3 + 2 + 22 = 27
10:30 Charlotte (28214) 6 + 2 + 7 = 15
11:30 Statesville (28625) 1 + 2 + 18 = 21
12:00 Cary (27511) 12 + 2 + 16 = 30
1:00 Charlotte (28214) 6 + 4 + 18 = 28
1:00 Jacksonville (28546) 1 + 3 + 23 = 27
1:00 Mint Hill (28227) 12 + 3 + 5 = 20
2:15 Statesville (28625) 1 + 2 + 16 = 19
3:00 Wilmington (28403) 8 + 2 + 32 = 42
1/26 Sunday
11:00 Durham (27707) 26 + 11 + 21 = 58
12:00 Fayetteville (28301) 1 + 3 + 12 = 16
12:00 Greenville (27858) 6 + 3 + 9 = 18
12:01 Kannapolis (28083) 1 + 3 + 16 = 20
1:20 Wilson (27893) 1 + 0 + 6 = 7
3:00 Wilmington (28403) 7 + 6 + 27 = 40
3:20 Kannapolis (28083) 0 + 0 + 10 = 10
4:00 Charlotte (28214) 0 + 0 + 7 = 7
1/29 Wednesday
5:00 Charlotte (28214) 0 + 2 + 9 = 11
6:00 Cornelius (28031) 3 + 1 + 7 = 11
1/30 Thursday
5:00 Charlotte (28214) 0 + 1 + 11 = 12
2/1 Saturday
10:30 Charlotte (28214) 4 + 2 + 12 = 18
11:00 Wilson (27893) 1 + 0 + 10 = 11
11:30 Statesville (28625) 2 + 2 + 12 = 16
12:00 Asheville (28803) 4 + 5 + 19 = 28
1:00 Charlotte (28214) 0 + 3 + 7 = 10
2/2 Sunday
12:00 Raleigh (27603) 2 + 3 + 13 = 18
12:01 Kannapolis (28083) 1 + 2 + 19 = 22
1:20 Wilson (27893) 1 + 0 + 7 = 8
3:00 Wilmington (28403) 10 + 4 + 16 = 30
3:20 Kannapolis (28083) 3 + 1 + 5 = 9
Nova Scotia
1/25 Saturday
12:00 Halifax (B3J 3J8) 0 + 4 + 18 = 22
1/26 Sunday
12:00 Halifax (B3J 3J8) 3 + 4 + 11 = 18
Ohio
1/25 Saturday
12:01 Dublin (43017) 0 + 0 + 20 = 20
12:01 Akron (44308) 1 + 1 + 38 = 40
12:01 Massillon (44646) 1 + 0 + 20 = 21
12:03 Findlay (45840) 2 + 2 + 33 = 37
10:00 Mount Gilead (43338-1433) 0 + 1 + 4 = 5
10:00 North Olmsted (44070) 10 + 5 + 27 = 42
11:00 Columbus (43210) 1 + 0 + 15 = 16
11:00 Toledo (43613) 5 + 7 + 42 = 54
1:00 Toledo (43613) 0 + 1 + 5 = 6
1:00 Columbus (43210) 2 + 1 + 11 = 14
1:00 North Olmsted (44070) 0 + 3 + 13 = 16
1:00 Akron (44308) 0 + 2 + 16 = 18
3:00 Strongsville (44136) 2 + 2 + 9 = 13
3:00 Columbus (43210) 1 + 1 + 7 = 9
4:30 Ashtabula (44004) 2 + 7 + 22 = 31
5:00 Kent (44242) 2 + 2 + 11 = 15
1/26 Sunday
12:00 Mansfield (44906) 1 + 1 + 17 = 19
12:00 Dublin (43017) 7 + 6 + 9 = 22
12:30 Green (44685) 1 + 1 + 13 = 15
12:30 Mentor (44060) 5 + 4 + 18 = 27
1:30 Streetsboro (44241) 1 + 3 + 18 = 22
3:00 Avon (44011) 2 + 1 + 11 = 14
5:00 Mansfield (44907) 0 + 3 + 10 = 13
1/27 Monday
5:15 Green (44685) 1 + 0 + 9 = 10
1/28 Tuesday
5:30 North Canton (44720) 3 + 0 + 9 = 12
6:30 Columbus (43229) 2 + 4 + 20 = 26
1/29 Wednesday
5:00 Findlay (45840) 2 + 1 + 6 = 9
5:30 Massillon (44646) 0 + 1 + 7 = 8
6:30 Akron (44308) 1 + 3 + 29 = 33
1/30 Thursday
5:30 Ashtabula (44004) 1 + 5 + 8 = 14
6:30 Columbus (43229) 1 + 3 + 4 = 8
2/1 Saturday
10:00 North Canton (44720) 0 + 0 + 10 = 10
12:00 Dublin (43017) 0 + 0 + 17 = 17
12:00 Findlay (45840) 1 + 4 + 10 = 15
2/2 Sunday
12:00 Kettering (45429) 4 + 7 + 61 = 72
1:00 East Liverpool (43920) 0 + 0 + 10 = 10
2:00 Ironton (45638) 5 + 1 + 14 = 20
Oklahoma
1/25 Saturday
12:01 Tulsa (74112) 2 + 4 + 14 = 20
9:00 Moore (73160) 0 + 3 + 20 = 23
10:00 Oklahoma City (73139) 7 + 8 + 13 = 28
12:00 Jenks (74037) 4 + 2 + 11 = 17
12:00 Lawton (73501) 2 + 6 + 22 = 30
2:30 Tulsa (74112) 0 + 1 + 4 = 5
4:30 WOODWARD (73801) 2 + 4 + 4 = 10
1/26 Sunday
12:00 Tulsa (74133) 0 + 1 + 16 = 17
12:30 NORMAN (73072) 12 + 3 + 25 = 40
1:00 Stillwater (74074) 1 + 0 + 8 = 9
1/27 Monday
5:00 Norman (73069) 1 + 2 + 17 = 20
Ontario
1/25 Saturday
12:01 Windsor (N8W 1K8) 1 + 1 + 12 = 14
12:01 Toronto (M1V 1K4) 0 + 0 + 28 = 28
12:01 Barrie (L4N5W4) 0 + 0 + 10 = 10
12:01 Mississauga (L5N 6A3) 0 + 2 + 19 = 21
9:00 Oshawa (L1G 1K6) 7 + 1 + 12 = 20
9:00 Toronto (M4Y 2B6) 2 + 3 + 12 = 17
10:00 Toronto (M1V 1K4) 1 + 0 + 16 = 17
10:00 Mississauga (L5A 3Y1) 4 + 2 + 24 = 30
10:00 Toronto (M4J 1M9) 3 + 4 + 12 = 19
10:30 Brampton (L6T 4P7) 1 + 0 + 6 = 7
10:30 Brampton (L6Z 1R3) 0 + 2 + 8 = 10
11:00 Waterloo (N2J 2Z1) 6 + 8 + 30 = 44
11:00 St Catharines (L2R 5J3) 0 + 4 + 6 = 10
11:00 Ridgeway (L0S 1N0) 2 + 1 + 3 = 6
11:00 oakville (L6K2G3) 8 + 4 + 9 = 21
11:00 North York (M4N 2N4) 3 + 1 + 5 = 9
11:00 Mississauga (L5J 3S8) 5 + 1 + 14 = 20
11:30 Vaughan (L4J7Y3) 0 + 1 + 4 = 5
11:30 Vaughan (L4K 2A1) 5 + 11 + 14 = 30
12:00 Orangeville (L9W 1K2) 7 + 3 + 5 = 15
12:00 Timmins (P4N 6K6) 5 + 6 + 2 = 13
12:00 Toronto (M4Y 2B6) 0 + 1 + 22 = 23
12:00 Ottawa (K2J 5G4) 1 + 5 + 16 = 22
12:10 Windsor (N8W 1K8) 1 + 1 + 9 = 11
1:00 Barrie (L4N5W4) 4 + 4 + 9 = 17
1:00 Markham (L3R 9Y2) 2 + 0 + 32 = 34
1:00 Cambridge (N3C 2A7) 0 + 0 + 6 = 6
2:30 Vaughan (L4J7Y3) 0 + 2 + 4 = 6
3:00 Markham (L3R 9Y2) 1 + 0 + 33 = 34
5:30 Markham (L3R 9Y2) 1 + 0 + 31 = 32
1/26 Sunday
10:00 London (N6E 3M2) 0 + 4 + 6 = 10
10:30 Brampton (L6T 4P7) 2 + 0 + 4 = 6
10:30 Guelph (N1H7T8) 6 + 8 + 3 = 17
11:00 Waterloo (N2J 2Z1) 2 + 7 + 26 = 35
11:00 oakville (L6K2G3) 3 + 3 + 13 = 19
11:15 Kingston (K7L 1G2) 0 + 5 + 6 = 11
11:30 Brampton (L6Z 1R3) 0 + 5 + 9 = 14
11:30 Vaughan (L4J7Y3) 2 + 4 + 5 = 11
12:00 Milton (L9T 5B2) 5 + 5 + 29 = 39
12:00 Ottawa (K1K 3B7) 12 + 2 + 14 = 28
12:00 North York (M4N 2N4) 6 + 4 + 5 = 15
12:10 Windsor (N8W 1C2) 4 + 2 + 8 = 14
1:00 Toronto (M1V 1K4) 4 + 0 + 12 = 16
1:00 Toronto (M4J 1M9) 12 + 1 + 22 = 35
2:00 Mississauga (L5N 6A3) 4 + 5 + 13 = 22
2:30 Vaughan (L4J7Y3) 3 + 3 + 6 = 12
3:00 Toronto (M1V 1K4) 1 + 1 + 10 = 12
1/27 Monday
6:00 Mississauga (L5J 3S8) 4 + 1 + 15 = 20
7:00 Markham (L3R 9Y2) 0 + 0 + 6 = 6
1/28 Tuesday
6:00 Kingston (K7P 2P2) 0 + 0 + 8 = 8
1/29 Wednesday
4:00 Milton (L9T 1P7) 8 + 1 + 3 = 12
1/31 Friday
7:00 Toronto (M1V 1K4) 0 + 2 + 15 = 17
2/1 Saturday
10:00 Mississauga (L5A 3Y1) 8 + 9 + 21 = 38
10:30 Mississauga (L5L 3A2) 3 + 7 + 27 = 37
11:00 oakville (L6K2G3) 9 + 5 + 15 = 29
1:00 Barrie (L4N5W4) 4 + 2 + 18 = 24
1:00 Toronto (M1V 1K4) 1 + 1 + 14 = 16
2:10 Windsor (N8W 1K8) 1 + 1 + 3 = 5
3:00 Toronto (M1V 1K4) 8 + 0 + 14 = 22
2/2 Sunday
10:00 Whitby (L1N 8R3) 13 + 4 + 26 = 43
10:30 Mississauga (L5L 3A2) 8 + 11 + 20 = 39
12:00 Milton (L9T 5B2) 6 + 4 + 27 = 37
2:00 Mississauga (L5N 6A3) 2 + 3 + 16 = 21
2:10 Windsor (N8W 1C2) 2 + 1 + 3 = 6
Oregon
1/25 Saturday
12:01 Sherwood (97140) 0 + 1 + 4 = 5
9:00 ONTARIO (97914) 5 + 2 + 2 = 9
9:30 Aloha (97003) 14 + 5 + 13 = 32
11:00 Salem (97301) 19 + 5 + 35 = 59
11:00 Milwaukie (97267) 3 + 5 + 16 = 24
12:00 Portland (97214) 17 + 14 + 36 = 67
2:00 Medford (97501) 0 + 7 + 16 = 23
2:00 Cottage Grove (97424) 5 + 2 + 2 = 9
3:00 Portland (97214) 3 + 0 + 12 = 15
11:29 Troutdale (97060) 1 + 1 + 17 = 19
1/26 Sunday
12:00 Wilsonville (97070) 7 + 6 + 8 = 21
12:30 Beaverton (97005) 4 + 2 + 17 = 23
2:00 Klamath Falls (97601) 5 + 2 + 7 = 14
1/27 Monday
5:30 Troutdale (97060) 10 + 6 + 14 = 30
1/28 Tuesday
5:30 Milwaukie (97032) 2 + 8 + 20 = 30
5:30 Springfield (97477) 1 + 0 + 12 = 13
2/1 Saturday
10:00 Bend (97702) 3 + 10 + 14 = 27
12:15 Hillsboro (97123) 3 + 1 + 17 = 21
12:30 Portland (97202) 7 + 10 + 6 = 23
2/2 Sunday
10:00 Gresham (97030) 2 + 5 + 10 = 17
Pennsylvania
1/25 Saturday
12:01 Altoona (16602) 2 + 1 + 17 = 20
12:01 Philadelphia (19152) 2 + 0 + 20 = 22
12:01 Lancaster (17603) 1 + 0 + 17 = 18
10:00 New Holland (17557) 1 + 3 + 5 = 9
10:30 East Norriton (19401) 5 + 6 + 18 = 29
11:00 Mechanicsburg (17050) 5 + 2 + 9 = 16
11:00 LATROBE (15650) 0 + 0 + 8 = 8
11:00 Monroeville (15146) 7 + 12 + 11 = 30
11:30 Indiana (15701) 1 + 1 + 7 = 9
12:00 Altoona (16602) 0 + 1 + 5 = 6
12:00 Philadelphia (19104) 0 + 0 + 12 = 12
12:00 Pleasant Hills (15236) 1 + 2 + 54 = 57
12:00 New Holland (17557) 2 + 0 + 5 = 7
12:01 Lancaster (17603) 1 + 2 + 5 = 8
1:00 Lewisburg (17837) 0 + 1 + 7 = 8
1:00 East Norriton (19401) 2 + 3 + 19 = 24
1:30 West Chester (19380) 6 + 5 + 6 = 17
4:00 Cranberry Township (16066) 1 + 1 + 14 = 16
5:00 Sharon (16146) 0 + 0 + 17 = 17
1/26 Sunday
10:30 Gettysburg (17325) 2 + 1 + 12 = 15
12:00 Homestead (15120) 2 + 2 + 15 = 19
12:00 York (17402) 3 + 2 + 11 = 16
12:00 Boyertown (19512) 2 + 5 + 13 = 20
12:30 Cranberry Township (16066) 1 + 1 + 10 = 12
12:30 Grove City (16127) 3 + 2 + 16 = 21
1:30 Stroudsburg (18360) 1 + 3 + 16 = 20
1:30 Indiana (15701) 4 + 0 + 9 = 13
2:00 Dickson City (18519) 3 + 0 + 10 = 13
2:00 York (17402) 1 + 2 + 12 = 15
2:30 LEBANON (17042) 3 + 2 + 18 = 23
4:30 Stroudsburg (18360) 0 + 3 + 9 = 12
1/27 Monday
3:00 Meadville (16335) 0 + 5 + 8 = 13
1/28 Tuesday
5:00 Lancaster (17603) 1 + 0 + 7 = 8
1/29 Wednesday
4:00 Pittsburgh (15232) 8 + 1 + 24 = 33
5:30 Chambersburg (17202) 2 + 1 + 26 = 29
1/30 Thursday
6:00 Mechanicsburg (17050) 7 + 5 + 9 = 21
1/31 Friday
6:00 West Chester (19380) 6 + 4 + 8 = 18
2/1 Saturday
11:00 Lock Haven (17745)
11:00 LATROBE (15650) 1 + 3 + 5 = 9
12:00 Bellefonte (16823) 3 + 2 + 12 = 17
1:30 West Chester (19380) 8 + 4 + 4 = 16
2:30 Lancaster (17603) 3 + 1 + 8 = 12
2/2 Sunday
11:00 Philadelphia (19152) 3 + 0 + 17 = 20
12:00 Bellefonte (16823) 0 + 0 + 10 = 10
1:30 Stroudsburg (18360) 0 + 2 + 5 = 7
4:30 Stroudsburg (18360) 0 + 2 + 3 = 5
Prince Edward Island
2/1 Saturday
12:00 Charlottetown (C1A 8K9) 1 + 0 + 5 = 6
Puerto Rico
1/25 Saturday
12:00 Caguas (00725) 0 + 2 + 27 = 29
2:00 Mayaguez (00682) 0 + 1 + 12 = 13
1/26 Sunday
12:00 Aguadilla (00603) 1 + 3 + 8 = 12
12:00 CAROLINA (00983) 0 + 0 + 16 = 16
Quebec
1/25 Saturday
9:30 Beloeil (J3G 2M9) 2 + 3 + 11 = 16
9:30 joliette (Qc) 2 + 2 + 16 = 20
9:30 Chateauguay (J6K 1C4) 0 + 3 + 7 = 10
10:00 Trois-Rivières (G8Y1W2) 7 + 2 + 21 = 30
10:00 Montreal (H2S 2M2) 0 + 0 + 34 = 34
11:00 Montreal (H3B 1H5) 2 + 2 + 22 = 26
11:00 Verdun (Montreal) (H4G-1W6) 2 + 2 + 4 = 8
11:00 Rouyn-Noranda (J9X 4P2) 2 + 1 + 11 = 14
11:30 Chateauguay (J6K 1C4) 0 + 2 + 4 = 6
12:00 Chateauguay (J6K 3J9) 1 + 3 + 18 = 22
1:00 Beloeil (J3G 2M9) 0 + 5 + 9 = 14
1:00 montreal (H4G 1W5) 0 + 1 + 7 = 8
1:30 joliette (Qc) 0 + 1 + 16 = 17
2:00 Montreal (H2K2H9) 4 + 1 + 25 = 30
1/26 Sunday
9:30 Montréal (H2R 1P8) 5 + 5 + 10 = 20
10:00 St-Bruno-de-Montarville (J3V5J5) 0 + 1 + 20 = 21
11:00 Montreal (H3B 1H5) 0 + 0 + 10 = 10
11:00 Verdun (Montreal) (H4G-1W6) 2 + 0 + 6 = 8
11:30 joliette (Qc) 1 + 4 + 9 = 14
12:00 Chateauguay (J6K 3J9) 1 + 3 + 19 = 23
12:30 Montréal (H2R 1P8) 2 + 6 + 6 = 14
1:00 montreal (H4G 1W5) 4 + 3 + 8 = 15
1/28 Tuesday
11:00 Montreal (H3B 1H5) 2 + 0 + 24 = 26
1/30 Thursday
5:00 Trois-Rivières (G8Y1W2) 4 + 6 + 18 = 28
1/31 Friday
5:00 Quebec (G1G 5X3) 0 + 3 + 28 = 31
2/1 Saturday
9:00 Quebec (G1G 5X3) 0 + 2 + 11 = 13
9:00 Chateauguay (J6K 3J9) 0 + 1 + 7 = 8
9:30 Chateauguay (J6K 1C4) 0 + 3 + 1 = 4
10:00 Saint-Jean-sur-Richelieu (J3B 2J7) 0 + 1 + 7 = 8
11:00 Montreal (H3B 1H5) 0 + 0 + 14 = 14
11:30 Chateauguay (J6K 1C4) 0 + 2 + 3 = 5
12:00 Quebec (G1G 5X3) 0 + 0 + 12 = 12
1:00 montreal (H4G 1W5) 3 + 0 + 5 = 8
5:00 Granby (J2G 2G6) 1 + 2 + 4 = 7
2/2 Sunday
11:00 Montreal (H3B 1H5) 1 + 0 + 9 = 10
12:00 Chateauguay (J6K 3J9) 0 + 1 + 5 = 6
1:00 montreal (H4G 1W5) 7 + 0 + 11 = 18
Rhode Island
1/25 Saturday
1:00 Pawtucket (02860) 2 + 3 + 10 = 15
1:15 Warwick (02888) 2 + 0 + 8 = 10
5:00 West Warwick (02893) 4 + 0 + 14 = 18
Saskatchewan
2/1 Saturday
9:00 Saskatoon (S7H 2P6)
South Carolina
1/25 Saturday
12:01 Rock Hill (29730) 4 + 1 + 27 = 32
10:00 Lexington (29072) 8 + 1 + 22 = 31
10:30 Columbia (29210) 15 + 5 + 21 = 41
11:00 Rock Hill (29732) 2 + 4 + 7 = 13
12:00 Myrtle Beach (29588) 21 + 19 + 55 = 95
1:00 Rock Hill (29732) 2 + 1 + 9 = 12
1:00 Greenville (29607) 2 + 0 + 9 = 11
5:00 Greenville (29607) 7 + 6 + 37 = 50
1/26 Sunday
10:00 Lexington (29072) 3 + 3 + 20 = 26
1:00 Anderson (29621) 1 + 1 + 8 = 10
1/28 Tuesday
6:00 Greenville (29607) 2 + 1 + 5 = 8
1/30 Thursday
5:45 Easley (29640) 2 + 0 + 5 = 7
1/31 Friday
6:15 Rock Hill (29730) 9 + 7 + 21 = 37
2/1 Saturday
12:00 Summerville (29485) 5 + 3 + 19 = 27
1:00 Rock Hill (29730) 3 + 3 + 1 = 7
4:00 Summerville (29485) 2 + 2 + 13 = 17
2/2 Sunday
12:00 Summerville (29485) 3 + 4 + 7 = 14
1:00 Anderson (29621) 0 + 0 + 11 = 11
South Dakota
1/25 Saturday
11:00 Rapid City (57701) 2 + 2 + 10 = 14
2/1 Saturday
9:00 Sioux Falls (57104) 0 + 7 + 20 = 27
2:00 Sioux Falls (57104) 2 + 8 + 19 = 29
Tennessee
1/25 Saturday
9:30 Signal Mountain (37377) 0 + 0 + 4 = 4
10:00 Memphis (38133) 7 + 5 + 24 = 36
10:00 Murfreesboro (37130) 2 + 5 + 38 = 45
11:00 Knoxville (37919) 21 + 2 + 36 = 59
12:00 Madison (37115) 1 + 0 + 14 = 15
12:00 Sevierville (37862) 2 + 2 + 12 = 16
12:01 Franklin (37217) 3 + 8 + 6 = 17
1:30 Murfreesboro (37129) 5 + 6 + 25 = 36
4:00 Madison (37115) 1 + 1 + 13 = 15
4:30 Signal Mountain (37377) 1 + 1 + 11 = 13
5:00 Murfreesboro (37129) 7 + 1 + 19 = 27
1/26 Sunday
10:00 Clarksville (37042) 5 + 2 + 15 = 22
12:00 Bristol (37620) 3 + 2 + 12 = 17
12:00 Oak Ridge (37830) 12 + 10 + 11 = 33
12:00 Maryville (37801) 8 + 3 + 13 = 24
12:00 Chattanooga (37415) 5 + 0 + 7 = 12
12:00 Madison (37115) 0 + 3 + 24 = 27
1:00 CHATTANOOGA (37421) 1 + 5 + 14 = 20
2:00 Jefferson City (37760) 2 + 2 + 6 = 10
1/28 Tuesday
5:00 Morristown (37813) 3 + 2 + 18 = 23
2/1 Saturday
12:00 Chattanooga (37411) 7 + 2 + 20 = 29
12:00 McKenzie (38201) 3 + 1 + 6 = 10
12:00 Shelbyville (37160) 2 + 0 + 7 = 9
12:00 Madison (37115) 5 + 1 + 15 = 21
4:00 Madison (37115) 0 + 0 + 12 = 12
2/2 Sunday
12:00 Madison (37115) 2 + 0 + 9 = 11
Texas
1/25 Saturday
McKinney (75070) 6 + 5 + 11 = 22
12:01 San Antonio (78231) 1 + 2 + 23 = 26
12:01 Bedford (76021) 1 + 0 + 48 = 49
9:30 Richardson (75080) 1 + 1 + 26 = 28
10:00 Bedford (76021) 4 + 2 + 11 = 17
11:00 Houston (77077) 8 + 7 + 30 = 45
11:00 Dallas (75247) 2 + 1 + 24 = 27
11:00 Austin (78727) 4 + 1 + 25 = 30
11:00 Frisco (75034) 0 + 2 + 18 = 20
12:00 Fort Worth (76116) 1 + 2 + 5 = 8
12:00 Waco (76710) 6 + 1 + 9 = 16
12:00 EL PASO (79925) 6 + 5 + 32 = 43
12:00 Lubbock (79412) 4 + 3 + 6 = 13
12:00 fort worth (76140) 1 + 1 + 9 = 11
12:00 Tyler (75707) 4 + 5 + 13 = 22
1:00 Laredo (78041) 1 + 0 + 22 = 23
1:00 Oak Ridge North (77385) 8 + 9 + 11 = 28
1:00 Frisco (75034) 0 + 4 + 2 = 6
2:00 Longview (75604) 4 + 0 + 8 = 12
3:00 Irving (75062) 0 + 4 + 24 = 28
3:00 Tyler (75701) 1 + 8 + 11 = 20
3:00 Bedford (76021) 2 + 1 + 10 = 13
3:00 Frisco (75034) 0 + 0 + 6 = 6
6:00 Waco (76701) 3 + 1 + 8 = 12
1/26 Sunday
11:00 Conroe (77301) 0 + 3 + 13 = 16
11:00 Frisco (75034) 2 + 1 + 7 = 10
12:00 Corpus Christi (78411) 0 + 5 + 20 = 25
12:00 fort worth (76140) 3 + 2 + 11 = 16
12:00 Bedford (76021) 4 + 2 + 25 = 31
12:00 San Antonio (78229) 5 + 3 + 34 = 42
12:00 Humble (77338) 8 + 3 + 15 = 26
12:01 Denison (75020) 0 + 1 + 9 = 10
12:30 Houston (77089) 1 + 7 + 34 = 42
12:30 Katy (77494) 8 + 5 + 9 = 22
12:30 Houston (77008) 11 + 6 + 12 = 29
1:00 Copperas Cove (76522) 1 + 2 + 13 = 16
1:00 New Braunfels (78130) 2 + 5 + 15 = 22
2:00 San Angelo (76903) 5 + 5 + 9 = 19
3:00 Frisco (75034) 1 + 3 + 4 = 8
4:00 Copperas Cove (76522) 1 + 1 + 11 = 13
1/27 Monday
6:30 San Antonio (78229) 0 + 1 + 20 = 21
1/28 Tuesday
5:00 san antonio (78213) 0 + 0 + 12 = 12
5:30 San Angelo (76903) 6 + 2 + 6 = 14
6:00 Houston (77098) 0 + 3 + 32 = 35
6:30 Austin (78727) 3 + 0 + 14 = 17
1/29 Wednesday
6:00 Keller (76244) 1 + 3 + 5 = 9
1/30 Thursday
4:00 Conroe (77301) 3 + 3 + 17 = 23
6:00 Houston (77077) 7 + 8 + 37 = 52
2/1 Saturday
9:00 Conroe (77301) 5 + 3 + 16 = 24
10:00 Bedford (76021) 4 + 0 + 16 = 20
10:00 SPRING (77388) 0 + 3 + 6 = 9
11:00 Frisco (75034) 4 + 2 + 9 = 15
11:00 Dallas (75287) 4 + 0 + 17 = 21
12:00 San Antonio (78253) 7 + 5 + 22 = 34
12:00 Tyler (75707) 1 + 2 + 9 = 12
1:00 Frisco (75034) 1 + 2 + 9 = 12
2:30 Tyler (75701) 3 + 1 + 12 = 16
3:00 Frisco (75034) 0 + 4 + 4 = 8
3:00 Bedford (76021) 4 + 1 + 25 = 30
4:00 Longview (75604) 4 + 2 + 16 = 22
6:00 San Antonio (78201) 2 + 0 + 9 = 11
11:00 Cypress (77429) 2 + 4 + 6 = 12
2/2 Sunday
10:00 Austin (78757) 25 + 16 + 30 = 71
11:00 Frisco (75034) 4 + 0 + 4 = 8
12:00 San Antonio (78229) 1 + 2 + 18 = 21
12:00 Humble (77338) 1 + 4 + 9 = 14
12:00 Bedford (76021) 1 + 2 + 18 = 21
1:00 Copperas Cove (76522) 1 + 0 + 6 = 7
1:00 Keller (76244) 1 + 1 + 10 = 12
1:00 New Braunfels (78130) 3 + 5 + 22 = 30
2:00 SPRING (77388) 1 + 5 + 10 = 16
2:00 Harlingen (78550) 2 + 1 + 18 = 21
3:00 Frisco (75034) 2 + 4 + 17 = 23
4:00 Copperas Cove (76522) 0 + 0 + 6 = 6
Utah
1/25 Saturday
10:00 West Valley City (84119) 8 + 7 + 29 = 44
11:00 Saint George (84770) 0 + 7 + 5 = 12
11:15 Layton (84041) 3 + 1 + 10 = 14
3:00 St. George (84790) 3 + 14 + 14 = 31
4:00 Salt Lake City (84111) 0 + 1 + 24 = 25
4:30 Layton (84041) 4 + 4 + 10 = 18
5:00 Logan (84321) 0 + 7 + 6 = 13
1/27 Monday
5:00 West Valley City (84119) 1 + 1 + 24 = 26
1/30 Thursday
5:30 Bountiful (84010) 2 + 5 + 20 = 27
5:30 Tooele (84074) 4 + 2 + 14 = 20
2/1 Saturday
10:00 West Valley City (84119) 2 + 2 + 16 = 20
11:00 Saint George (84770) 0 + 2 + 6 = 8
1:00 Salt Lake City (84111) 1 + 1 + 12 = 14
Virginia
1/25 Saturday
10:30 Fredericksburg (22401) 9 + 1 + 21 = 31
11:00 Richmond (23228) 5 + 7 + 21 = 33
11:00 Hampton (23666) 1 + 3 + 13 = 17
11:00 Hampton (23669) 4 + 2 + 14 = 20
11:00 Virginia Beach (23456) 7 + 4 + 15 = 26
12:00 Roanoke (24016) 4 + 4 + 32 = 40
12:00 Portsmouth (23701) 4 + 4 + 13 = 21
12:00 Chantilly (20151) 9 + 7 + 26 = 42
12:30 Wise (24293) 2 + 1 + 2 = 5
12:45 Lynchburg (24502) 1 + 1 + 6 = 8
1:00 Harrisonburg (22802) 4 + 2 + 6 = 12
1:30 Richmond (23228) 3 + 0 + 10 = 13
1:30 Fredericksburg (22401) 6 + 2 + 17 = 25
3:30 Richmond (23228) 4 + 1 + 10 = 15
6:00 Richmond (23228) 2 + 1 + 10 = 13
1/26 Sunday
10:30 Fredericksburg (22401) 3 + 1 + 9 = 13
11:00 Virginia Beach (23452) 0 + 0 + 8 = 8
11:00 Richmond (23221) 8 + 8 + 4 = 20
12:00 Norfolk (23503) 2 + 2 + 11 = 15
12:30 Woodbridge (22192) 3 + 4 + 8 = 15
1:00 Charlottesville (22901) 9 + 8 + 13 = 30
1:30 Fredericksburg (22401) 5 + 4 + 11 = 20
1/27 Monday
3:45 Lexington (24450) 12 + 3 + 2 = 17
1/31 Friday
6:00 Richmond (23228) 0 + 1 + 14 = 15
2/1 Saturday
10:00 Ashburn (20147) 8 + 5 + 19 = 32
12:00 Portsmouth (23701) 7 + 2 + 23 = 32
1:00 Chantilly (20151) 4 + 14 + 27 = 45
2:00 Chester (23831) 0 + 3 + 7 = 10
2/2 Sunday
12:00 Hopewell (23860) 1 + 0 + 9 = 10
12:00 Norfolk (23503) 0 + 3 + 2 = 5
12:30 Woodbridge (22192) 5 + 2 + 8 = 15
2:45 Fincastle (24090) 2 + 9 + 6 = 17
Washington
1/25 Saturday
12:01 Lakewood (98499) 0 + 0 + 17 = 17
12:01 SPOKANE VALLEY (99206) 0 + 0 + 10 = 10
9:00 Kelso (98626) 4 + 0 + 4 = 8
10:00 Tacoma (98406) 3 + 2 + 14 = 19
10:00 Seattle (98107) 12 + 5 + 4 = 21
10:00 Richland (99354) 5 + 6 + 19 = 30
10:30 Redmond (98052) 7 + 1 + 12 = 20
11:00 Edmonds (98026) 12 + 4 + 17 = 33
12:00 Ellensburg (98926) 1 + 2 + 7 = 10
12:00 Bremerton (98337) 7 + 3 + 18 = 28
12:30 Spokane Valley (99206) 0 + 2 + 14 = 16
1:00 Puyallup (98373) 1 + 0 + 19 = 20
1:00 Tacoma (98406) 0 + 0 + 9 = 9
2:00 Seattle (98107) 6 + 6 + 5 = 17
2:00 Richland (99354) 2 + 1 + 17 = 20
2:00 SPOKANE VALLEY (99206) 6 + 0 + 15 = 21
2:30 Redmond (98052) 6 + 2 + 17 = 25
5:00 Anacortes (98221) 0 + 0 + 4 = 4
5:30 Vancouver (98662) 3 + 3 + 8 = 14
1/26 Sunday
11:00 Lakewood (98499) 2 + 1 + 5 = 8
11:30 Spokane (99207) 5 + 6 + 28 = 39
12:00 Mt Vernon (98273) 3 + 2 + 7 = 12
12:00 SPOKANE VALLEY (99206) 2 + 0 + 6 = 8
12:00 EVERETT (98208) 4 + 5 + 10 = 19
12:00 Lacey (98503) 5 + 5 + 10 = 20
12:00 Ellensburg (98926) 2 + 0 + 10 = 12
5:00 Anacortes (98221) 1 + 1 + 6 = 8
1/27 Monday
4:30 Auburn (98002) 0 + 0 + 7 = 7
1/28 Tuesday
5:30 Spokane (99207) 8 + 6 + 24 = 38
1/29 Wednesday
4:00 University Place (98466) 0 + 0 + 7 = 7
1/30 Thursday
6:00 Lakewood (98499) 1 + 2 + 3 = 6
1/31 Friday
5:00 Kent (98032) 0 + 1 + 8 = 9
5:30 Tukwila (98188) 5 + 2 + 17 = 24
2/1 Saturday
10:00 Renton (98057) 0 + 2 + 17 = 19
12:00 Ellensburg (98926) 1 + 2 + 1 = 4
12:30 Spokane (99207) 3 + 4 + 17 = 24
2/2 Sunday
11:00 Bellevue (98005) 10 + 9 + 13 = 32
12:00 Mt Vernon (98273) 2 + 1 + 3 = 6
2:00 Bellevue (98005) 0 + 0 + 6 = 6
5:00 Anacortes (98221) 2 + 0 + 4 = 6
West Virginia
1/25 Saturday
9:00 Shinnston (26431) 3 + 3 + 2 = 8
12:00 Beckley (25801) 3 + 3 + 13 = 19
1/26 Sunday
3:30 Bridgeport (26330) 7 + 1 + 12 = 20
1/27 Monday
5:00 Martinsburg (25404) 3 + 4 + 14 = 21
1/31 Friday
4:00 Shinnston (26431) 2 + 0 + 4 = 6
Wisconsin
1/25 Saturday
12:01 De Pere (54115) 1 + 0 + 24 = 25
9:00 Oconomowoc (53066) 0 + 0 + 13 = 13
10:30 Appleton (54915) 2 + 0 + 15 = 17
10:30 De Pere (54115) 1 + 3 + 12 = 16
11:30 Green Bay (54304) 9 + 2 + 4 = 15
12:00 Menomonie (54751) 1 + 1 + 14 = 16
12:30 De Pere (54115) 0 + 2 + 3 = 5
1:00 Eau Claire (54701) 2 + 2 + 11 = 15
2:00 River Falls (54022) 2 + 2 + 8 = 12
4:00 Eau Claire (54701) 2 + 1 + 17 = 20
11:30 Appleton (54915) 0 + 0 + 8 = 8
1/26 Sunday
9:00 Madison (53716) 3 + 7 + 15 = 25
11:00 Kenosha (53142) 2 + 1 + 7 = 10
12:00 Racine (53403) 5 + 2 + 18 = 25
12:30 Green Bay (54302) 1 + 3 + 13 = 17
12:30 Oshkosh (54901) 2 + 4 + 9 = 15
2:00 De Pere (54115) 4 + 2 + 14 = 20
1/28 Tuesday
3:00 Sheboygan (53081) 2 + 6 + 13 = 21
1/30 Thursday
4:00 Appleton (54915) 1 + 2 + 3 = 6
4:30 De Pere (54115) 0 + 0 + 6 = 6
6:30 De Pere (54115) 0 + 0 + 4 = 4
1/31 Friday
9:00 Green Bay (54304) 1 + 2 + 5 = 8
5:30 De Pere (54115) 1 + 0 + 3 = 4
8:30 La Crosse (54601) 6 + 5 + 8 = 19
2/1 Saturday
10:30 Appleton (54915) 0 + 0 + 20 = 20
11:00 La Crosse (54601) 6 + 1 + 4 = 11
11:00 Green Bay (54304) 1 + 1 + 4 = 6
12:00 Racine (53403) 0 + 2 + 24 = 26
2:00 River Falls (54022) 3 + 1 + 14 = 18
2/2 Sunday
11:00 Stevens Point (54481) 2 + 4 + 6 = 12
12:00 Kenosha (53142)
12:30 Green Bay (54302) 2 + 1 + 3 = 6
2:30 De Pere (54115) 1 + 1 + 4 = 6
Yukon
2/1 Saturday
11:00 Whitehorse (Y1A 1E6) 17 + 15 + 8 = 40